sensor_id;sensor_type;location;lat;lon;timestamp;P1;durP1;ratioP1;P2;durP2;ratioP2
18023;SDS011;9137;50.960;3.118;2023-06-24T00:00:01;5.13;;;4.45;;
18023;SDS011;9137;50.960;3.118;2023-06-24T00:02:32;5.65;;;5.13;;
18023;SDS011;9137;50.960;3.118;2023-06-24T00:05:01;4.50;;;4.10;;
18023;SDS011;9137;50.960;3.118;2023-06-24T00:07:30;5.10;;;4.60;;
18023;SDS011;9137;50.960;3.118;2023-06-24T00:09:58;6.10;;;5.50;;
18023;SDS011;9137;50.960;3.118;2023-06-24T00:12:25;5.30;;;4.80;;
18023;SDS011;9137;50.960;3.118;2023-06-24T00:14:52;5.60;;;5.15;;
18023;SDS011;9137;50.960;3.118;2023-06-24T00:17:19;5.82;;;5.43;;
18023;SDS011;9137;50.960;3.118;2023-06-24T00:19:45;5.50;;;5.00;;
18023;SDS011;9137;50.960;3.118;2023-06-24T00:22:12;6.13;;;5.63;;
18023;SDS011;9137;50.960;3.118;2023-06-24T00:24:39;5.67;;;5.27;;
18023;SDS011;9137;50.960;3.118;2023-06-24T00:27:09;6.35;;;5.82;;
18023;SDS011;9137;50.960;3.118;2023-06-24T00:29:36;6.63;;;6.03;;
18023;SDS011;9137;50.960;3.118;2023-06-24T00:32:05;6.10;;;5.55;;
18023;SDS011;9137;50.960;3.118;2023-06-24T00:34:33;6.53;;;5.93;;
18023;SDS011;9137;50.960;3.118;2023-06-24T00:37:01;5.95;;;5.45;;
18023;SDS011;9137;50.960;3.118;2023-06-24T00:39:28;7.25;;;6.13;;
18023;SDS011;9137;50.960;3.118;2023-06-24T00:41:55;6.85;;;6.25;;
18023;SDS011;9137;50.960;3.118;2023-06-24T00:44:23;5.88;;;5.38;;
18023;SDS011;9137;50.960;3.118;2023-06-24T00:46:50;5.85;;;5.35;;
18023;SDS011;9137;50.960;3.118;2023-06-24T00:49:17;6.05;;;5.55;;
18023;SDS011;9137;50.960;3.118;2023-06-24T00:51:44;6.25;;;5.75;;
18023;SDS011;9137;50.960;3.118;2023-06-24T00:54:12;6.85;;;6.25;;
18023;SDS011;9137;50.960;3.118;2023-06-24T00:56:39;7.43;;;6.72;;
18023;SDS011;9137;50.960;3.118;2023-06-24T00:59:07;7.25;;;6.55;;
18023;SDS011;9137;50.960;3.118;2023-06-24T01:01:38;6.83;;;6.23;;
18023;SDS011;9137;50.960;3.118;2023-06-24T01:04:06;6.82;;;6.28;;
18023;SDS011;9137;50.960;3.118;2023-06-24T01:06:34;7.07;;;6.47;;
18023;SDS011;9137;50.960;3.118;2023-06-24T01:09:08;9.33;;;7.33;;
18023;SDS011;9137;50.960;3.118;2023-06-24T01:11:35;7.00;;;6.50;;
18023;SDS011;9137;50.960;3.118;2023-06-24T01:14:02;7.50;;;6.80;;
18023;SDS011;9137;50.960;3.118;2023-06-24T01:16:30;7.82;;;7.05;;
18023;SDS011;9137;50.960;3.118;2023-06-24T01:19:04;6.95;;;6.35;;
18023;SDS011;9137;50.960;3.118;2023-06-24T01:21:47;7.25;;;6.65;;
18023;SDS011;9137;50.960;3.118;2023-06-24T01:24:31;8.40;;;7.60;;
18023;SDS011;9137;50.960;3.118;2023-06-24T01:27:19;7.95;;;7.25;;
18023;SDS011;9137;50.960;3.118;2023-06-24T01:32:50;7.95;;;7.25;;
18023;SDS011;9137;50.960;3.118;2023-06-24T01:35:21;7.57;;;6.87;;
18023;SDS011;9137;50.960;3.118;2023-06-24T01:37:54;7.55;;;6.85;;
18023;SDS011;9137;50.960;3.118;2023-06-24T01:40:26;7.47;;;6.78;;
18023;SDS011;9137;50.960;3.118;2023-06-24T01:42:55;7.82;;;7.13;;
18023;SDS011;9137;50.960;3.118;2023-06-24T01:45:25;7.78;;;7.07;;
18023;SDS011;9137;50.960;3.118;2023-06-24T01:47:57;8.00;;;7.30;;
18023;SDS011;9137;50.960;3.118;2023-06-24T01:50:27;7.57;;;6.88;;
18023;SDS011;9137;50.960;3.118;2023-06-24T01:52:58;8.52;;;7.72;;
18023;SDS011;9137;50.960;3.118;2023-06-24T01:55:28;8.13;;;7.32;;
18023;SDS011;9137;50.960;3.118;2023-06-24T01:57:57;8.40;;;7.60;;
18023;SDS011;9137;50.960;3.118;2023-06-24T02:00:28;8.85;;;7.95;;
18023;SDS011;9137;50.960;3.118;2023-06-24T02:02:57;8.07;;;7.30;;
18023;SDS011;9137;50.960;3.118;2023-06-24T02:05:25;8.90;;;8.10;;
18023;SDS011;9137;50.960;3.118;2023-06-24T02:07:53;8.88;;;8.15;;
18023;SDS011;9137;50.960;3.118;2023-06-24T02:10:21;8.43;;;7.70;;
18023;SDS011;9137;50.960;3.118;2023-06-24T02:12:50;9.00;;;8.20;;
18023;SDS011;9137;50.960;3.118;2023-06-24T02:15:18;8.63;;;7.85;;
18023;SDS011;9137;50.960;3.118;2023-06-24T02:17:48;8.73;;;7.93;;
18023;SDS011;9137;50.960;3.118;2023-06-24T02:20:17;8.82;;;7.88;;
18023;SDS011;9137;50.960;3.118;2023-06-24T02:22:46;9.20;;;8.45;;
18023;SDS011;9137;50.960;3.118;2023-06-24T02:25:13;8.57;;;7.87;;
18023;SDS011;9137;50.960;3.118;2023-06-24T02:27:41;8.93;;;8.13;;
18023;SDS011;9137;50.960;3.118;2023-06-24T02:30:08;8.88;;;7.88;;
18023;SDS011;9137;50.960;3.118;2023-06-24T02:32:36;9.05;;;8.15;;
18023;SDS011;9137;50.960;3.118;2023-06-24T02:35:04;9.18;;;8.27;;
18023;SDS011;9137;50.960;3.118;2023-06-24T02:37:33;8.90;;;8.10;;
18023;SDS011;9137;50.960;3.118;2023-06-24T02:40:01;9.25;;;8.45;;
18023;SDS011;9137;50.960;3.118;2023-06-24T02:42:29;9.15;;;8.27;;
18023;SDS011;9137;50.960;3.118;2023-06-24T02:44:56;9.82;;;8.82;;
18023;SDS011;9137;50.960;3.118;2023-06-24T02:47:24;9.27;;;8.48;;
18023;SDS011;9137;50.960;3.118;2023-06-24T02:49:52;9.00;;;8.20;;
18023;SDS011;9137;50.960;3.118;2023-06-24T02:52:21;8.90;;;8.10;;
18023;SDS011;9137;50.960;3.118;2023-06-24T02:54:49;9.38;;;8.57;;
18023;SDS011;9137;50.960;3.118;2023-06-24T02:57:16;10.38;;;9.40;;
18023;SDS011;9137;50.960;3.118;2023-06-24T02:59:45;9.88;;;8.93;;
18023;SDS011;9137;50.960;3.118;2023-06-24T03:02:13;9.25;;;8.45;;
18023;SDS011;9137;50.960;3.118;2023-06-24T03:04:41;9.40;;;8.50;;
18023;SDS011;9137;50.960;3.118;2023-06-24T03:07:08;10.17;;;9.17;;
18023;SDS011;9137;50.960;3.118;2023-06-24T03:09:37;10.02;;;8.70;;
18023;SDS011;9137;50.960;3.118;2023-06-24T03:12:07;9.00;;;8.27;;
18023;SDS011;9137;50.960;3.118;2023-06-24T03:14:34;10.10;;;9.20;;
18023;SDS011;9137;50.960;3.118;2023-06-24T03:17:01;10.23;;;9.07;;
18023;SDS011;9137;50.960;3.118;2023-06-24T03:19:28;9.73;;;8.82;;
18023;SDS011;9137;50.960;3.118;2023-06-24T03:21:55;9.65;;;8.75;;
18023;SDS011;9137;50.960;3.118;2023-06-24T03:24:22;9.95;;;9.05;;
18023;SDS011;9137;50.960;3.118;2023-06-24T03:26:49;9.85;;;8.95;;
18023;SDS011;9137;50.960;3.118;2023-06-24T03:29:23;9.27;;;8.48;;
18023;SDS011;9137;50.960;3.118;2023-06-24T03:31:50;10.13;;;9.07;;
18023;SDS011;9137;50.960;3.118;2023-06-24T03:34:17;9.63;;;8.70;;
18023;SDS011;9137;50.960;3.118;2023-06-24T03:36:44;9.32;;;8.52;;
18023;SDS011;9137;50.960;3.118;2023-06-24T03:39:11;9.90;;;8.90;;
18023;SDS011;9137;50.960;3.118;2023-06-24T03:41:38;9.30;;;8.40;;
18023;SDS011;9137;50.960;3.118;2023-06-24T03:44:05;9.65;;;8.75;;
18023;SDS011;9137;50.960;3.118;2023-06-24T03:46:33;9.30;;;8.30;;
18023;SDS011;9137;50.960;3.118;2023-06-24T03:49:00;9.98;;;9.02;;
18023;SDS011;9137;50.960;3.118;2023-06-24T03:51:27;9.93;;;9.02;;
18023;SDS011;9137;50.960;3.118;2023-06-24T03:53:54;9.90;;;9.00;;
18023;SDS011;9137;50.960;3.118;2023-06-24T03:56:21;10.15;;;9.25;;
18023;SDS011;9137;50.960;3.118;2023-06-24T03:58:48;9.40;;;8.52;;
18023;SDS011;9137;50.960;3.118;2023-06-24T04:01:15;10.50;;;9.50;;
18023;SDS011;9137;50.960;3.118;2023-06-24T04:03:45;10.70;;;9.70;;
18023;SDS011;9137;50.960;3.118;2023-06-24T04:06:12;10.10;;;9.20;;
18023;SDS011;9137;50.960;3.118;2023-06-24T04:08:39;10.48;;;9.55;;
18023;SDS011;9137;50.960;3.118;2023-06-24T04:11:08;10.68;;;9.68;;
18023;SDS011;9137;50.960;3.118;2023-06-24T04:13:36;10.02;;;9.13;;
18023;SDS011;9137;50.960;3.118;2023-06-24T04:16:03;11.25;;;10.15;;
18023;SDS011;9137;50.960;3.118;2023-06-24T04:21:54;10.70;;;9.80;;
18023;SDS011;9137;50.960;3.118;2023-06-24T04:24:21;12.88;;;11.63;;
18023;SDS011;9137;50.960;3.118;2023-06-24T04:26:48;11.85;;;10.68;;
18023;SDS011;9137;50.960;3.118;2023-06-24T04:32:36;11.60;;;10.40;;
18023;SDS011;9137;50.960;3.118;2023-06-24T04:35:04;11.13;;;10.02;;
18023;SDS011;9137;50.960;3.118;2023-06-24T04:37:32;11.50;;;10.40;;
18023;SDS011;9137;50.960;3.118;2023-06-24T04:39:59;11.82;;;10.73;;
18023;SDS011;9137;50.960;3.118;2023-06-24T04:42:26;12.00;;;10.85;;
18023;SDS011;9137;50.960;3.118;2023-06-24T04:44:53;11.18;;;10.18;;
18023;SDS011;9137;50.960;3.118;2023-06-24T04:47:19;11.63;;;10.50;;
18023;SDS011;9137;50.960;3.118;2023-06-24T04:49:46;11.70;;;10.67;;
18023;SDS011;9137;50.960;3.118;2023-06-24T04:52:13;11.35;;;10.35;;
18023;SDS011;9137;50.960;3.118;2023-06-24T04:54:42;13.15;;;11.95;;
18023;SDS011;9137;50.960;3.118;2023-06-24T04:57:09;12.77;;;11.48;;
18023;SDS011;9137;50.960;3.118;2023-06-24T04:59:48;11.88;;;10.80;;
18023;SDS011;9137;50.960;3.118;2023-06-24T05:02:15;12.82;;;11.55;;
18023;SDS011;9137;50.960;3.118;2023-06-24T05:04:42;13.25;;;11.98;;
18023;SDS011;9137;50.960;3.118;2023-06-24T05:07:09;11.38;;;10.38;;
18023;SDS011;9137;50.960;3.118;2023-06-24T05:09:36;12.25;;;11.15;;
18023;SDS011;9137;50.960;3.118;2023-06-24T05:12:05;12.57;;;11.35;;
18023;SDS011;9137;50.960;3.118;2023-06-24T05:14:33;13.30;;;12.10;;
18023;SDS011;9137;50.960;3.118;2023-06-24T05:17:00;12.30;;;11.15;;
18023;SDS011;9137;50.960;3.118;2023-06-24T05:19:27;12.93;;;11.65;;
18023;SDS011;9137;50.960;3.118;2023-06-24T05:21:54;12.80;;;11.50;;
18023;SDS011;9137;50.960;3.118;2023-06-24T05:24:21;12.77;;;11.68;;
18023;SDS011;9137;50.960;3.118;2023-06-24T05:26:49;13.13;;;11.73;;
18023;SDS011;9137;50.960;3.118;2023-06-24T05:29:18;14.65;;;12.15;;
18023;SDS011;9137;50.960;3.118;2023-06-24T05:31:45;13.88;;;12.68;;
18023;SDS011;9137;50.960;3.118;2023-06-24T05:34:12;13.27;;;12.05;;
18023;SDS011;9137;50.960;3.118;2023-06-24T05:36:39;13.73;;;12.53;;
18023;SDS011;9137;50.960;3.118;2023-06-24T05:39:06;13.65;;;12.25;;
18023;SDS011;9137;50.960;3.118;2023-06-24T05:41:33;14.50;;;13.10;;
18023;SDS011;9137;50.960;3.118;2023-06-24T05:44:01;14.00;;;12.70;;
18023;SDS011;9137;50.960;3.118;2023-06-24T05:46:30;14.35;;;13.05;;
18023;SDS011;9137;50.960;3.118;2023-06-24T05:48:57;13.95;;;12.75;;
18023;SDS011;9137;50.960;3.118;2023-06-24T05:51:24;14.45;;;13.05;;
18023;SDS011;9137;50.960;3.118;2023-06-24T05:53:51;14.35;;;13.05;;
18023;SDS011;9137;50.960;3.118;2023-06-24T05:56:18;13.57;;;12.27;;
18023;SDS011;9137;50.960;3.118;2023-06-24T05:58:46;13.88;;;12.52;;
18023;SDS011;9137;50.960;3.118;2023-06-24T06:01:13;15.20;;;13.68;;
18023;SDS011;9137;50.960;3.118;2023-06-24T06:03:41;14.98;;;13.52;;
18023;SDS011;9137;50.960;3.118;2023-06-24T06:06:08;15.63;;;14.02;;
18023;SDS011;9137;50.960;3.118;2023-06-24T06:08:35;15.20;;;13.80;;
18023;SDS011;9137;50.960;3.118;2023-06-24T06:11:02;15.98;;;14.30;;
18023;SDS011;9137;50.960;3.118;2023-06-24T06:13:29;16.07;;;14.47;;
18023;SDS011;9137;50.960;3.118;2023-06-24T06:15:57;16.05;;;14.55;;
18023;SDS011;9137;50.960;3.118;2023-06-24T06:18:24;16.45;;;14.73;;
18023;SDS011;9137;50.960;3.118;2023-06-24T06:20:52;16.08;;;14.57;;
18023;SDS011;9137;50.960;3.118;2023-06-24T06:23:19;17.20;;;15.50;;
18023;SDS011;9137;50.960;3.118;2023-06-24T06:25:46;17.55;;;15.80;;
18023;SDS011;9137;50.960;3.118;2023-06-24T06:28:13;16.88;;;15.27;;
18023;SDS011;9137;50.960;3.118;2023-06-24T06:30:40;16.30;;;14.60;;
18023;SDS011;9137;50.960;3.118;2023-06-24T06:33:07;16.80;;;15.20;;
18023;SDS011;9137;50.960;3.118;2023-06-24T06:35:33;16.48;;;14.88;;
18023;SDS011;9137;50.960;3.118;2023-06-24T06:38:02;16.75;;;15.15;;
18023;SDS011;9137;50.960;3.118;2023-06-24T06:40:29;16.55;;;14.93;;
18023;SDS011;9137;50.960;3.118;2023-06-24T06:42:56;15.70;;;14.20;;
18023;SDS011;9137;50.960;3.118;2023-06-24T06:45:23;16.15;;;14.57;;
18023;SDS011;9137;50.960;3.118;2023-06-24T06:47:50;17.25;;;15.55;;
18023;SDS011;9137;50.960;3.118;2023-06-24T06:50:17;16.35;;;14.85;;
18023;SDS011;9137;50.960;3.118;2023-06-24T06:52:44;16.02;;;14.55;;
18023;SDS011;9137;50.960;3.118;2023-06-24T06:55:12;16.40;;;14.80;;
18023;SDS011;9137;50.960;3.118;2023-06-24T06:57:39;16.80;;;15.33;;
18023;SDS011;9137;50.960;3.118;2023-06-24T07:00:06;15.63;;;14.13;;
18023;SDS011;9137;50.960;3.118;2023-06-24T07:02:35;17.10;;;15.30;;
18023;SDS011;9137;50.960;3.118;2023-06-24T07:05:02;15.70;;;14.23;;
18023;SDS011;9137;50.960;3.118;2023-06-24T07:07:29;16.20;;;14.70;;
18023;SDS011;9137;50.960;3.118;2023-06-24T07:09:55;16.65;;;15.15;;
18023;SDS011;9137;50.960;3.118;2023-06-24T07:12:24;16.70;;;15.10;;
18023;SDS011;9137;50.960;3.118;2023-06-24T07:14:50;17.05;;;15.52;;
18023;SDS011;9137;50.960;3.118;2023-06-24T07:17:17;15.82;;;14.40;;
18023;SDS011;9137;50.960;3.118;2023-06-24T07:19:44;16.50;;;14.90;;
18023;SDS011;9137;50.960;3.118;2023-06-24T07:22:11;16.57;;;14.97;;
18023;SDS011;9137;50.960;3.118;2023-06-24T07:24:38;17.50;;;15.80;;
18023;SDS011;9137;50.960;3.118;2023-06-24T07:27:05;16.63;;;15.13;;
18023;SDS011;9137;50.960;3.118;2023-06-24T07:29:34;16.05;;;14.57;;
18023;SDS011;9137;50.960;3.118;2023-06-24T07:32:01;16.70;;;15.20;;
18023;SDS011;9137;50.960;3.118;2023-06-24T07:34:28;17.00;;;15.50;;
18023;SDS011;9137;50.960;3.118;2023-06-24T07:36:56;17.73;;;15.98;;
18023;SDS011;9137;50.960;3.118;2023-06-24T07:39:23;18.08;;;16.38;;
18023;SDS011;9137;50.960;3.118;2023-06-24T07:41:50;15.70;;;14.30;;
18023;SDS011;9137;50.960;3.118;2023-06-24T07:44:17;16.45;;;14.95;;
18023;SDS011;9137;50.960;3.118;2023-06-24T07:46:46;17.08;;;15.48;;
18023;SDS011;9137;50.960;3.118;2023-06-24T07:49:13;17.17;;;15.35;;
18023;SDS011;9137;50.960;3.118;2023-06-24T07:51:40;17.50;;;15.83;;
18023;SDS011;9137;50.960;3.118;2023-06-24T07:54:09;16.95;;;15.45;;
18023;SDS011;9137;50.960;3.118;2023-06-24T07:56:36;17.35;;;15.77;;
18023;SDS011;9137;50.960;3.118;2023-06-24T07:59:03;17.35;;;15.50;;
18023;SDS011;9137;50.960;3.118;2023-06-24T08:01:30;17.13;;;15.60;;
18023;SDS011;9137;50.960;3.118;2023-06-24T08:04:00;16.50;;;15.00;;
18023;SDS011;9137;50.960;3.118;2023-06-24T08:06:30;16.60;;;15.10;;
18023;SDS011;9137;50.960;3.118;2023-06-24T08:08:57;15.00;;;13.68;;
18023;SDS011;9137;50.960;3.118;2023-06-24T08:11:24;16.73;;;15.23;;
18023;SDS011;9137;50.960;3.118;2023-06-24T08:13:51;16.60;;;15.10;;
18023;SDS011;9137;50.960;3.118;2023-06-24T08:16:18;15.55;;;14.15;;
18023;SDS011;9137;50.960;3.118;2023-06-24T08:18:45;15.48;;;14.05;;
18023;SDS011;9137;50.960;3.118;2023-06-24T08:21:14;15.23;;;13.82;;
18023;SDS011;9137;50.960;3.118;2023-06-24T08:23:41;16.77;;;15.27;;
18023;SDS011;9137;50.960;3.118;2023-06-24T08:26:08;15.98;;;14.63;;
18023;SDS011;9137;50.960;3.118;2023-06-24T08:28:35;15.98;;;14.55;;
18023;SDS011;9137;50.960;3.118;2023-06-24T08:31:02;17.25;;;15.63;;
18023;SDS011;9137;50.960;3.118;2023-06-24T08:33:29;16.48;;;15.00;;
18023;SDS011;9137;50.960;3.118;2023-06-24T08:35:56;16.58;;;14.98;;
18023;SDS011;9137;50.960;3.118;2023-06-24T08:38:24;16.08;;;14.70;;
18023;SDS011;9137;50.960;3.118;2023-06-24T08:40:51;17.23;;;15.57;;
18023;SDS011;9137;50.960;3.118;2023-06-24T08:43:19;16.23;;;14.73;;
18023;SDS011;9137;50.960;3.118;2023-06-24T08:45:45;16.67;;;15.17;;
18023;SDS011;9137;50.960;3.118;2023-06-24T08:48:13;16.13;;;14.73;;
18023;SDS011;9137;50.960;3.118;2023-06-24T08:50:43;15.98;;;14.43;;
18023;SDS011;9137;50.960;3.118;2023-06-24T08:53:12;16.15;;;14.65;;
18023;SDS011;9137;50.960;3.118;2023-06-24T08:55:45;15.00;;;13.70;;
18023;SDS011;9137;50.960;3.118;2023-06-24T08:58:12;14.90;;;13.60;;
18023;SDS011;9137;50.960;3.118;2023-06-24T09:00:39;15.13;;;13.77;;
18023;SDS011;9137;50.960;3.118;2023-06-24T09:03:07;15.50;;;14.10;;
18023;SDS011;9137;50.960;3.118;2023-06-24T09:05:34;15.38;;;14.07;;
18023;SDS011;9137;50.960;3.118;2023-06-24T09:08:01;14.43;;;13.20;;
18023;SDS011;9137;50.960;3.118;2023-06-24T09:10:29;15.40;;;14.07;;
18023;SDS011;9137;50.960;3.118;2023-06-24T09:12:59;16.40;;;14.90;;
18023;SDS011;9137;50.960;3.118;2023-06-24T09:15:29;14.20;;;12.90;;
18023;SDS011;9137;50.960;3.118;2023-06-24T09:17:56;16.02;;;14.45;;
18023;SDS011;9137;50.960;3.118;2023-06-24T09:20:25;15.13;;;13.73;;
18023;SDS011;9137;50.960;3.118;2023-06-24T09:22:57;15.05;;;13.75;;
18023;SDS011;9137;50.960;3.118;2023-06-24T09:25:24;14.95;;;13.65;;
18023;SDS011;9137;50.960;3.118;2023-06-24T09:27:51;14.23;;;13.03;;
18023;SDS011;9137;50.960;3.118;2023-06-24T09:30:23;14.77;;;13.57;;
18023;SDS011;9137;50.960;3.118;2023-06-24T09:32:50;14.35;;;13.13;;
18023;SDS011;9137;50.960;3.118;2023-06-24T09:35:18;13.98;;;12.77;;
18023;SDS011;9137;50.960;3.118;2023-06-24T09:37:50;14.20;;;12.88;;
18023;SDS011;9137;50.960;3.118;2023-06-24T09:40:17;13.68;;;12.52;;
18023;SDS011;9137;50.960;3.118;2023-06-24T09:42:48;12.65;;;11.55;;
18023;SDS011;9137;50.960;3.118;2023-06-24T09:45:19;14.55;;;13.25;;
18023;SDS011;9137;50.960;3.118;2023-06-24T09:47:48;12.75;;;11.57;;
18023;SDS011;9137;50.960;3.118;2023-06-24T09:50:15;11.40;;;10.40;;
18023;SDS011;9137;50.960;3.118;2023-06-24T09:52:43;11.18;;;10.18;;
18023;SDS011;9137;50.960;3.118;2023-06-24T09:55:12;12.00;;;10.88;;
18023;SDS011;9137;50.960;3.118;2023-06-24T09:57:40;9.97;;;9.07;;
18023;SDS011;9137;50.960;3.118;2023-06-24T10:00:11;7.63;;;6.82;;
18023;SDS011;9137;50.960;3.118;2023-06-24T10:02:41;8.73;;;7.82;;
18023;SDS011;9137;50.960;3.118;2023-06-24T10:05:09;8.80;;;8.10;;
18023;SDS011;9137;50.960;3.118;2023-06-24T10:07:39;7.72;;;7.13;;
18023;SDS011;9137;50.960;3.118;2023-06-24T10:10:07;7.40;;;6.80;;
18023;SDS011;9137;50.960;3.118;2023-06-24T10:12:35;7.60;;;6.90;;
18023;SDS011;9137;50.960;3.118;2023-06-24T10:15:03;7.80;;;7.00;;
18023;SDS011;9137;50.960;3.118;2023-06-24T10:17:31;7.90;;;7.30;;
18023;SDS011;9137;50.960;3.118;2023-06-24T10:19:58;8.50;;;7.77;;
18023;SDS011;9137;50.960;3.118;2023-06-24T10:22:30;9.15;;;8.35;;
18023;SDS011;9137;50.960;3.118;2023-06-24T10:24:59;9.15;;;8.35;;
18023;SDS011;9137;50.960;3.118;2023-06-24T10:27:26;8.60;;;7.82;;
18023;SDS011;9137;50.960;3.118;2023-06-24T10:29:57;9.32;;;8.43;;
18023;SDS011;9137;50.960;3.118;2023-06-24T10:32:39;10.38;;;9.52;;
18023;SDS011;9137;50.960;3.118;2023-06-24T10:35:07;8.97;;;8.20;;
18023;SDS011;9137;50.960;3.118;2023-06-24T10:37:55;9.30;;;8.50;;
18023;SDS011;9137;50.960;3.118;2023-06-24T10:40:35;10.10;;;9.10;;
18023;SDS011;9137;50.960;3.118;2023-06-24T10:43:05;9.82;;;9.02;;
18023;SDS011;9137;50.960;3.118;2023-06-24T10:45:52;10.13;;;9.32;;
18023;SDS011;9137;50.960;3.118;2023-06-24T10:48:20;10.30;;;9.43;;
18023;SDS011;9137;50.960;3.118;2023-06-24T10:50:47;10.38;;;9.48;;
18023;SDS011;9137;50.960;3.118;2023-06-24T10:53:17;9.63;;;8.82;;
18023;SDS011;9137;50.960;3.118;2023-06-24T10:55:44;10.85;;;9.85;;
18023;SDS011;9137;50.960;3.118;2023-06-24T10:58:12;10.30;;;9.30;;
18023;SDS011;9137;50.960;3.118;2023-06-24T11:00:40;12.20;;;11.00;;
18023;SDS011;9137;50.960;3.118;2023-06-24T11:03:09;10.57;;;9.68;;
18023;SDS011;9137;50.960;3.118;2023-06-24T11:05:37;10.50;;;9.50;;
18023;SDS011;9137;50.960;3.118;2023-06-24T11:08:05;11.20;;;10.27;;
18023;SDS011;9137;50.960;3.118;2023-06-24T11:10:34;9.05;;;8.35;;
18023;SDS011;9137;50.960;3.118;2023-06-24T11:13:09;10.23;;;9.33;;
18023;SDS011;9137;50.960;3.118;2023-06-24T11:15:36;11.38;;;10.40;;
18023;SDS011;9137;50.960;3.118;2023-06-24T11:18:07;11.13;;;10.07;;
18023;SDS011;9137;50.960;3.118;2023-06-24T11:20:35;8.77;;;8.07;;
18023;SDS011;9137;50.960;3.118;2023-06-24T11:23:06;10.50;;;9.55;;
18023;SDS011;9137;50.960;3.118;2023-06-24T11:25:38;10.45;;;9.55;;
18023;SDS011;9137;50.960;3.118;2023-06-24T11:28:11;9.27;;;8.50;;
18023;SDS011;9137;50.960;3.118;2023-06-24T11:30:39;10.10;;;9.32;;
18023;SDS011;9137;50.960;3.118;2023-06-24T11:33:06;8.70;;;8.00;;
18023;SDS011;9137;50.960;3.118;2023-06-24T11:35:33;7.30;;;6.60;;
18023;SDS011;9137;50.960;3.118;2023-06-24T11:38:02;7.53;;;6.93;;
18023;SDS011;9137;50.960;3.118;2023-06-24T11:40:30;8.20;;;7.50;;
18023;SDS011;9137;50.960;3.118;2023-06-24T11:42:59;7.85;;;7.25;;
18023;SDS011;9137;50.960;3.118;2023-06-24T11:45:27;7.13;;;6.53;;
18023;SDS011;9137;50.960;3.118;2023-06-24T11:48:00;6.82;;;6.32;;
18023;SDS011;9137;50.960;3.118;2023-06-24T11:50:30;6.87;;;6.27;;
18023;SDS011;9137;50.960;3.118;2023-06-24T11:52:57;6.72;;;6.22;;
18023;SDS011;9137;50.960;3.118;2023-06-24T11:55:25;6.45;;;5.85;;
18023;SDS011;9137;50.960;3.118;2023-06-24T11:57:53;5.55;;;5.05;;
18023;SDS011;9137;50.960;3.118;2023-06-24T12:00:24;6.28;;;5.78;;
18023;SDS011;9137;50.960;3.118;2023-06-24T12:02:55;5.47;;;5.07;;
18023;SDS011;9137;50.960;3.118;2023-06-24T12:05:23;6.07;;;5.57;;
18023;SDS011;9137;50.960;3.118;2023-06-24T12:07:54;6.40;;;5.90;;
18023;SDS011;9137;50.960;3.118;2023-06-24T12:10:25;4.47;;;4.07;;
18023;SDS011;9137;50.960;3.118;2023-06-24T12:12:53;4.00;;;3.58;;
18023;SDS011;9137;50.960;3.118;2023-06-24T12:15:24;3.97;;;3.67;;
18023;SDS011;9137;50.960;3.118;2023-06-24T12:17:51;4.20;;;3.80;;
18023;SDS011;9137;50.960;3.118;2023-06-24T12:20:18;4.07;;;3.77;;
18023;SDS011;9137;50.960;3.118;2023-06-24T12:22:45;3.47;;;3.17;;
18023;SDS011;9137;50.960;3.118;2023-06-24T12:25:13;4.10;;;3.80;;
18023;SDS011;9137;50.960;3.118;2023-06-24T12:27:41;4.53;;;4.13;;
18023;SDS011;9137;50.960;3.118;2023-06-24T12:30:09;4.17;;;3.87;;
18023;SDS011;9137;50.960;3.118;2023-06-24T12:32:38;2.80;;;2.60;;
18023;SDS011;9137;50.960;3.118;2023-06-24T12:35:05;2.88;;;2.67;;
18023;SDS011;9137;50.960;3.118;2023-06-24T12:37:34;3.78;;;3.25;;
18023;SDS011;9137;50.960;3.118;2023-06-24T12:40:01;3.30;;;2.90;;
18023;SDS011;9137;50.960;3.118;2023-06-24T12:42:29;2.80;;;2.60;;
18023;SDS011;9137;50.960;3.118;2023-06-24T12:44:56;2.72;;;2.45;;
18023;SDS011;9137;50.960;3.118;2023-06-24T12:47:22;3.40;;;3.10;;
18023;SDS011;9137;50.960;3.118;2023-06-24T12:49:51;3.63;;;3.33;;
18023;SDS011;9137;50.960;3.118;2023-06-24T12:52:18;3.30;;;3.10;;
18023;SDS011;9137;50.960;3.118;2023-06-24T12:54:45;3.20;;;3.00;;
18023;SDS011;9137;50.960;3.118;2023-06-24T12:57:13;3.75;;;3.45;;
18023;SDS011;9137;50.960;3.118;2023-06-24T12:59:40;3.38;;;3.08;;
18023;SDS011;9137;50.960;3.118;2023-06-24T13:02:07;3.95;;;3.65;;
18023;SDS011;9137;50.960;3.118;2023-06-24T13:04:34;3.10;;;2.90;;
18023;SDS011;9137;50.960;3.118;2023-06-24T13:07:02;2.93;;;2.27;;
18023;SDS011;9137;50.960;3.118;2023-06-24T13:09:30;2.13;;;2.03;;
18023;SDS011;9137;50.960;3.118;2023-06-24T13:11:57;2.50;;;2.30;;
18023;SDS011;9137;50.960;3.118;2023-06-24T13:14:23;2.45;;;2.28;;
18023;SDS011;9137;50.960;3.118;2023-06-24T13:16:53;2.40;;;1.83;;
18023;SDS011;9137;50.960;3.118;2023-06-24T13:19:20;2.80;;;2.50;;
18023;SDS011;9137;50.960;3.118;2023-06-24T13:21:47;3.20;;;2.40;;
18023;SDS011;9137;50.960;3.118;2023-06-24T13:24:15;2.05;;;1.95;;
18023;SDS011;9137;50.960;3.118;2023-06-24T13:26:42;2.17;;;1.98;;
18023;SDS011;9137;50.960;3.118;2023-06-24T13:29:09;2.88;;;2.50;;
18023;SDS011;9137;50.960;3.118;2023-06-24T13:31:36;3.10;;;2.70;;
18023;SDS011;9137;50.960;3.118;2023-06-24T13:34:03;2.70;;;2.50;;
18023;SDS011;9137;50.960;3.118;2023-06-24T13:36:31;2.92;;;2.72;;
18023;SDS011;9137;50.960;3.118;2023-06-24T13:39:00;2.90;;;2.70;;
18023;SDS011;9137;50.960;3.118;2023-06-24T13:41:28;2.80;;;2.60;;
18023;SDS011;9137;50.960;3.118;2023-06-24T13:43:57;2.75;;;2.55;;
18023;SDS011;9137;50.960;3.118;2023-06-24T13:46:25;3.10;;;2.35;;
18023;SDS011;9137;50.960;3.118;2023-06-24T13:48:52;2.35;;;2.25;;
18023;SDS011;9137;50.960;3.118;2023-06-24T13:51:19;2.27;;;2.10;;
18023;SDS011;9137;50.960;3.118;2023-06-24T13:53:46;2.10;;;1.90;;
18023;SDS011;9137;50.960;3.118;2023-06-24T13:56:14;2.50;;;2.08;;
18023;SDS011;9137;50.960;3.118;2023-06-24T13:58:42;2.00;;;1.90;;
18023;SDS011;9137;50.960;3.118;2023-06-24T14:01:09;2.35;;;2.15;;
18023;SDS011;9137;50.960;3.118;2023-06-24T14:03:36;2.58;;;2.28;;
18023;SDS011;9137;50.960;3.118;2023-06-24T14:06:03;2.88;;;2.67;;
18023;SDS011;9137;50.960;3.118;2023-06-24T14:08:31;2.60;;;2.35;;
18023;SDS011;9137;50.960;3.118;2023-06-24T14:10:58;2.72;;;2.53;;
18023;SDS011;9137;50.960;3.118;2023-06-24T14:13:26;2.10;;;2.00;;
18023;SDS011;9137;50.960;3.118;2023-06-24T14:15:54;2.03;;;1.92;;
18023;SDS011;9137;50.960;3.118;2023-06-24T14:18:21;2.13;;;1.92;;
18023;SDS011;9137;50.960;3.118;2023-06-24T14:20:48;2.35;;;2.15;;
18023;SDS011;9137;50.960;3.118;2023-06-24T14:23:15;2.60;;;2.40;;
18023;SDS011;9137;50.960;3.118;2023-06-24T14:25:43;2.22;;;2.08;;
18023;SDS011;9137;50.960;3.118;2023-06-24T14:28:10;2.15;;;1.95;;
18023;SDS011;9137;50.960;3.118;2023-06-24T14:30:37;2.60;;;2.38;;
18023;SDS011;9137;50.960;3.118;2023-06-24T14:33:05;2.60;;;2.40;;
18023;SDS011;9137;50.960;3.118;2023-06-24T14:35:32;2.20;;;1.90;;
18023;SDS011;9137;50.960;3.118;2023-06-24T14:37:59;2.60;;;2.40;;
18023;SDS011;9137;50.960;3.118;2023-06-24T14:40:32;2.17;;;2.08;;
18023;SDS011;9137;50.960;3.118;2023-06-24T14:42:59;2.77;;;2.20;;
18023;SDS011;9137;50.960;3.118;2023-06-24T14:45:26;2.90;;;2.70;;
18023;SDS011;9137;50.960;3.118;2023-06-24T14:47:53;2.43;;;2.23;;
18023;SDS011;9137;50.960;3.118;2023-06-24T14:50:21;2.33;;;2.13;;
18023;SDS011;9137;50.960;3.118;2023-06-24T14:52:48;2.70;;;2.50;;
18023;SDS011;9137;50.960;3.118;2023-06-24T14:55:15;2.55;;;2.35;;
18023;SDS011;9137;50.960;3.118;2023-06-24T14:57:42;2.28;;;2.08;;
18023;SDS011;9137;50.960;3.118;2023-06-24T15:00:10;2.23;;;2.03;;
18023;SDS011;9137;50.960;3.118;2023-06-24T15:02:37;2.63;;;2.43;;
18023;SDS011;9137;50.960;3.118;2023-06-24T15:05:04;2.65;;;2.45;;